.
WxDataArchive / Data Records for 2008-02-12
2008-02-11 February 2008 2008-02-13

Data Records for Tuesday, 12 February 2008

Time	Temp	Chill	HIndex	Humid	Dewpt	 Wind 	HiWind	WindDir	Rain 	Barom 
-----	----	-----	------	-----	-----	------	------	-------	-----	----- 
00:00	12.9	12.9	12.9	82	8.5	3	9	90	0.00	30.289 
00:05	12.9	12.9	12.9	82	8.5	3	7	90	0.00	30.284 
00:10	12.9	12.9	12.9	82	8.5	3	6	90	0.00	30.281 
00:15	12.9	12.9	12.9	82	8.5	3	6	90	0.00	30.282 
00:20	12.9	12.9	12.9	82	8.5	3	8	90	0.00	30.284 
00:25	12.9	12.9	12.9	82	8.5	2	6	90	0.00	30.286 
00:30	13.1	13.1	13.1	82	8.7	3	10	90	0.00	30.285 
00:35	13.1	13.1	13.1	82	8.7	3	9	90	0.00	30.282 
00:40	13.1	13.1	13.1	82	8.7	3	9	112	0.00	30.278 
00:45	13.1	13.1	13.1	81	8.4	3	6	112	0.00	30.274 
00:50	13.1	6.2	13.1	81	8.4	4	7	90	0.00	30.272 
00:55	13.1	4.9	13.1	80	8.1	5	10	112	0.00	30.270 
01:00	13.1	13.1	13.1	80	8.1	3	7	112	0.00	30.266 
01:05	13.1	6.2	13.1	80	8.1	4	9	112	0.00	30.269 
01:10	13.3	13.3	13.3	80	8.3	3	7	112	0.00	30.271 
01:15	13.3	6.5	13.3	80	8.3	4	9	90	0.00	30.267 
01:20	13.1	4.9	13.1	80	8.1	5	11	90	0.00	30.260 
01:25	13.1	6.2	13.1	80	8.1	4	8	90	0.00	30.257 
01:30	13.3	13.3	13.3	80	8.3	3	9	112	0.00	30.255 
01:35	13.3	13.3	13.3	80	8.3	3	7	90	0.00	30.253 
01:40	13.3	6.5	13.3	80	8.3	4	11	112	0.00	30.248 
01:45	13.3	6.5	13.3	80	8.3	4	9	112	0.00	30.240 
01:50	13.3	6.5	13.3	80	8.3	4	9	112	0.00	30.237 
01:55	13.3	5.1	13.3	80	8.3	5	10	90	0.00	30.226 
02:00	13.3	6.5	13.3	80	8.3	4	9	112	0.00	30.227 
02:05	13.3	13.3	13.3	81	8.6	3	9	90	0.00	30.225 
02:10	13.3	6.5	13.3	81	8.6	4	9	90	0.00	30.224 
02:15	13.5	13.5	13.5	81	8.8	3	8	90	0.00	30.224 
02:20	13.5	13.5	13.5	81	8.8	2	6	90	0.00	30.221 
02:25	13.5	6.7	13.5	80	8.5	4	10	112	0.00	30.218 
02:30	13.5	13.5	13.5	81	8.8	3	6	112	0.00	30.207 
02:35	13.5	13.5	13.5	81	8.8	3	7	112	0.00	30.206 
02:40	13.3	5.1	13.3	81	8.6	5	11	112	0.00	30.206 
02:45	13.3	5.1	13.3	81	8.6	5	11	90	0.00	30.208 
02:50	13.3	6.5	13.3	81	8.6	4	11	112	0.00	30.206 
02:55	13.3	6.5	13.3	82	8.9	4	10	112	0.00	30.197 
03:00	13.3	6.5	13.3	82	8.9	4	11	112	0.00	30.195 
03:05	13.3	6.5	13.3	82	8.9	4	11	90	0.00	30.193 
03:10	13.3	5.1	13.3	80	8.3	5	10	112	0.00	30.190 
03:15	13.3	4.0	13.3	81	8.6	6	12	112	0.00	30.191 
03:20	13.3	4.0	13.3	82	8.9	6	11	90	0.00	30.182 
03:25	13.3	5.1	13.3	81	8.6	5	10	112	0.00	30.178 
03:30	13.3	6.5	13.3	82	8.9	4	11	90	0.00	30.173 
03:35	13.3	5.1	13.3	82	8.9	5	11	90	0.00	30.170 
03:40	13.3	4.0	13.3	81	8.6	6	13	90	0.00	30.164 
03:45	13.3	13.3	13.3	82	8.9	3	10	112	0.00	30.163 
03:50	13.3	4.0	13.3	82	8.9	6	12	112	0.00	30.161 
03:55	13.3	6.5	13.3	82	8.9	4	11	112	0.00	30.161 
04:00	13.3	4.0	13.3	82	8.9	6	12	112	0.00	30.159 
04:05	13.3	4.0	13.3	82	8.9	6	11	112	0.00	30.159 
04:10	13.5	5.3	13.5	82	9.0	5	10	112	0.00	30.155 
04:15	13.5	5.3	13.5	81	8.8	5	11	112	0.00	30.148 
04:20	13.5	4.2	13.5	81	8.8	6	13	112	0.00	30.145 
04:25	13.5	4.2	13.5	81	8.8	6	13	112	0.00	30.145 
04:30	13.6	4.3	13.6	81	8.9	6	14	90	0.00	30.142 
04:35	13.6	5.5	13.6	81	8.9	5	12	90	0.00	30.135 
04:40	13.6	6.8	13.6	81	8.9	4	7	112	0.00	30.131 
04:45	13.6	4.3	13.6	81	8.9	6	13	112	0.00	30.131 
04:50	13.6	4.3	13.6	81	8.9	6	11	112	0.00	30.130 
04:55	13.8	7.1	13.8	81	9.1	4	10	112	0.00	30.129 
05:00	13.8	7.1	13.8	81	9.1	4	11	112	0.00	30.128 
05:05	13.8	5.7	13.8	81	9.1	5	13	112	0.00	30.129 
05:10	13.8	5.7	13.8	81	9.1	5	10	112	0.00	30.132 
05:15	13.8	5.7	13.8	81	9.1	5	14	90	0.00	30.129 
05:20	13.8	5.7	13.8	80	8.8	5	12	112	0.00	30.128 
05:25	13.8	7.1	13.8	80	8.8	4	12	112	0.00	30.128 
05:30	13.8	5.7	13.8	80	8.8	5	10	112	0.00	30.125 
05:35	13.8	5.7	13.8	80	8.8	5	13	112	0.00	30.129 
05:40	13.8	5.7	13.8	80	8.8	5	13	90	0.00	30.128 
05:45	13.8	7.1	13.8	80	8.8	4	11	112	0.00	30.128 
05:50	13.8	5.7	13.8	80	8.8	5	10	112	0.00	30.129 
05:55	13.8	7.1	13.8	80	8.8	4	9	112	0.00	30.128 
06:00	14.0	5.9	14.0	80	9.0	5	14	112	0.00	30.129 
06:05	14.0	5.9	14.0	79	8.7	5	12	112	0.00	30.129 
06:10	14.0	5.9	14.0	79	8.7	5	14	112	0.00	30.130 
06:15	14.0	7.3	14.0	79	8.7	4	12	90	0.00	30.126 
06:20	14.0	4.8	14.0	79	8.7	6	16	112	0.00	30.119 
06:25	14.0	7.3	14.0	80	9.0	4	12	112	0.00	30.114 
06:30	14.1	6.1	14.1	79	8.8	5	15	112	0.00	30.111 
06:35	14.1	4.9	14.1	80	9.1	6	12	112	0.00	30.103 
06:40	14.1	4.9	14.1	80	9.1	6	13	112	0.00	30.100 
06:45	14.1	3.0	14.1	79	8.8	8	16	112	0.00	30.097 
06:50	14.3	6.3	14.3	79	9.0	5	11	112	0.00	30.097 
06:55	14.3	5.2	14.3	80	9.3	6	17	112	0.00	30.098 
07:00	14.3	6.3	14.3	80	9.3	5	13	112	0.00	30.098 
07:05	14.3	4.2	14.3	81	9.6	7	13	112	0.00	30.097 
07:10	14.3	3.3	14.3	81	9.6	8	14	112	0.00	30.094 
07:15	14.3	5.2	14.3	81	9.6	6	14	90	0.00	30.088 
07:20	14.3	4.2	14.3	82	9.8	7	14	112	0.00	30.092 
07:25	14.3	5.2	14.3	83	10.1	6	13	112	0.00	30.093 
07:30	14.3	4.2	14.3	83	10.1	7	15	112	0.00	30.088 
07:35	14.4	6.4	14.4	84	10.5	5	11	112	0.00	30.084 
07:40	14.3	6.3	14.3	84	10.4	5	13	112	0.00	30.082 
07:45	14.3	5.2	14.3	84	10.4	6	16	112	0.00	30.083 
07:50	14.3	5.2	14.3	84	10.4	6	15	112	0.00	30.081 
07:55	14.4	5.3	14.4	85	10.7	6	13	112	0.00	30.074 
08:00	14.4	6.4	14.4	85	10.7	5	12	90	0.00	30.079 
08:05	14.4	7.7	14.4	85	10.7	4	14	112	0.00	30.079 
08:10	14.4	6.4	14.4	85	10.7	5	16	112	0.00	30.072 
08:15	14.6	5.5	14.6	86	11.2	6	14	112	0.00	30.067 
08:20	14.6	6.6	14.6	86	11.2	5	10	112	0.00	30.065 
08:25	14.6	6.6	14.6	86	11.2	5	12	112	0.00	30.061 
08:30	14.6	6.6	14.6	86	11.2	5	14	112	0.00	30.053 
08:35	14.8	8.2	14.8	86	11.4	4	11	90	0.00	30.052 
08:40	14.9	8.3	14.9	86	11.5	4	11	112	0.00	30.050 
08:45	14.9	5.9	14.9	86	11.5	6	15	112	0.00	30.048 
08:50	14.9	4.0	14.9	86	11.5	8	18	112	0.00	30.046 
08:55	15.1	7.2	15.1	87	11.9	5	12	112	0.00	30.036 
09:00	15.2	8.7	15.2	87	12.0	4	9	90	0.00	30.036 
09:05	15.4	7.6	15.4	86	12.0	5	13	112	0.00	30.032 
09:10	15.4	8.9	15.4	86	12.0	4	10	112	0.00	30.023 
09:15	15.4	6.5	15.4	86	12.0	6	13	112	0.00	30.019 
09:20	15.6	9.1	15.6	86	12.2	4	11	90	0.00	30.017 
09:25	15.6	15.6	15.6	85	11.9	3	9	112	0.00	30.014 
09:30	15.6	9.1	15.6	85	11.9	4	11	112	0.00	30.017 
09:35	15.6	9.1	15.6	85	11.9	4	11	112	0.00	30.016 
09:40	15.6	7.8	15.6	85	11.9	5	12	112	0.00	30.015 
09:45	15.7	7.9	15.7	85	12.0	5	11	112	0.00	30.014 
09:50	15.7	6.8	15.7	84	11.7	6	14	112	0.00	30.014 
09:55	15.9	8.2	15.9	84	11.9	5	13	112	0.00	30.012 
10:00	15.9	6.1	15.9	84	11.9	7	16	112	0.00	30.002 
10:05	16.1	9.7	16.1	84	12.1	4	10	90	0.00	30.000 
10:10	16.1	8.4	16.1	84	12.1	5	13	112	0.00	30.000 
10:15	16.1	6.3	16.1	84	12.1	7	14	112	0.00	29.997 
10:20	16.2	7.4	16.2	84	12.2	6	13	112	0.00	29.997 
10:25	16.2	8.5	16.2	84	12.2	5	12	112	0.00	29.993 
10:30	16.4	8.8	16.4	84	12.4	5	12	112	0.00	29.990 
10:35	16.5	10.2	16.5	84	12.5	4	12	90	0.00	29.989 
10:40	16.5	7.8	16.5	84	12.5	6	12	112	0.00	29.990 
10:45	16.5	8.9	16.5	84	12.5	5	14	112	0.00	29.988 
10:50	16.7	16.7	16.7	84	12.7	3	9	90	0.00	29.988 
10:55	16.7	9.1	16.7	84	12.7	5	14	112	0.00	29.987 
11:00	16.7	9.1	16.7	84	12.7	5	13	112	0.00	29.985 
11:05	16.7	8.0	16.7	84	12.7	6	13	112	0.00	29.980 
11:10	16.7	10.4	16.7	84	12.7	4	12	112	0.00	29.980 
11:15	16.9	10.6	16.9	84	12.9	4	10	112	0.00	29.970 
11:20	16.9	10.6	16.9	84	12.9	4	11	112	0.00	29.968 
11:25	16.9	10.6	16.9	84	12.9	4	10	90	0.00	29.966 
11:30	17.0	10.7	17.0	84	13.0	4	11	112	0.00	29.959 
11:35	17.2	17.2	17.2	84	13.2	3	9	112	0.00	29.952 
11:40	17.0	8.4	17.0	83	12.7	6	12	112	0.00	29.946 
11:45	16.9	6.5	16.9	83	12.6	8	16	112	0.00	29.940 
11:50	16.9	6.5	16.9	83	12.6	8	14	112	0.00	29.935 
11:55	17.0	7.4	17.0	83	12.7	7	13	112	0.00	29.932 
12:00	17.3	11.1	17.3	84	13.3	4	10	90	0.00	29.932 
12:05	17.5	9.0	17.5	84	13.5	6	13	112	0.00	29.926 
12:10	17.5	9.0	17.5	84	13.5	6	13	112	0.00	29.921 
12:15	17.7	11.6	17.7	84	13.7	4	12	112	0.00	29.918 
12:20	17.7	10.3	17.7	84	13.7	5	11	112	0.00	29.916 
12:25	17.8	11.7	17.8	84	13.8	4	11	112	0.00	29.909 
12:30	18.0	11.9	18.0	84	14.0	4	12	112	0.00	29.906 
12:35	17.8	9.3	17.8	84	13.8	6	11	112	0.00	29.897 
12:40	18.0	10.6	18.0	84	14.0	5	11	112	0.00	29.890 
12:45	18.0	10.6	18.0	84	14.0	5	12	112	0.00	29.887 
12:50	18.1	12.0	18.1	84	14.1	4	10	112	0.00	29.881 
12:55	18.3	12.3	18.3	84	14.3	4	9	112	0.00	29.880 
13:00	18.3	9.9	18.3	84	14.3	6	15	112	0.00	29.874 
13:05	18.3	11.0	18.3	83	14.0	5	12	90	0.00	29.871 
13:10	18.3	11.0	18.3	84	14.3	5	13	90	0.00	29.868 
13:15	18.6	12.6	18.6	84	14.6	4	11	90	0.00	29.861 
13:20	18.4	11.1	18.4	84	14.4	5	10	112	0.00	29.857 
13:25	18.4	10.0	18.4	84	14.4	6	13	112	0.00	29.857 
13:30	18.4	10.0	18.4	84	14.4	6	12	112	0.00	29.850 
13:35	18.6	18.6	18.6	84	14.6	3	11	112	0.00	29.848 
13:40	18.4	10.0	18.4	84	14.4	6	12	112	0.00	29.841 
13:45	18.6	18.6	18.6	84	14.6	3	11	112	0.00	29.840 
13:50	18.6	18.6	18.6	84	14.6	2	8	112	0.00	29.843 
13:55	18.6	12.6	18.6	84	14.6	4	10	90	0.00	29.840 
14:00	18.8	18.8	18.8	84	14.8	3	7	112	0.00	29.840 
14:05	18.9	18.9	18.9	84	14.9	2	6	112	0.00	29.839 
14:10	18.9	18.9	18.9	85	15.2	2	6	45	0.00	29.835 
14:15	19.1	19.1	19.1	85	15.3	2	7	112	0.00	29.824 
14:20	19.1	19.1	19.1	85	15.3	2	6	112	0.00	29.824 
14:25	19.2	19.2	19.2	85	15.4	2	6	112	0.00	29.821 
14:30	19.2	19.2	19.2	85	15.4	2	7	112	0.00	29.820 
14:35	19.2	19.2	19.2	85	15.4	2	6	112	0.00	29.813 
14:40	19.2	19.2	19.2	85	15.4	2	5	45	0.00	29.808 
14:45	19.2	19.2	19.2	85	15.4	2	6	112	0.00	29.806 
14:50	19.2	19.2	19.2	85	15.4	3	7	112	0.00	29.802 
14:55	19.1	19.1	19.1	85	15.3	3	10	45	0.00	29.805 
15:00	19.1	19.1	19.1	85	15.3	2	5	45	0.00	29.806 
15:05	18.9	18.9	18.9	85	15.2	3	7	112	0.00	29.807 
15:10	19.1	19.1	19.1	85	15.3	2	6	45	0.00	29.808 
15:15	19.1	19.1	19.1	85	15.3	1	5	112	0.00	29.809 
15:20	19.4	19.4	19.4	86	15.9	0	1	112	0.00	29.812 
15:25	19.5	19.5	19.5	86	16.0	0	2	112	0.00	29.812 
15:30	19.5	19.5	19.5	85	15.7	2	6	112	0.00	29.809 
15:35	19.4	19.4	19.4	84	15.4	1	5	22	0.00	29.809 
15:40	19.5	19.5	19.5	85	15.7	1	3	112	0.00	29.806 
15:45	19.7	19.7	19.7	85	15.9	0	3	68	0.00	29.805 
15:50	19.7	19.7	19.7	84	15.7	2	7	112	0.00	29.804 
15:55	19.7	19.7	19.7	84	15.7	1	5	112	0.00	29.800 
16:00	19.7	19.7	19.7	84	15.7	1	5	112	0.00	29.792 
16:05	19.7	19.7	19.7	84	15.7	1	5	112	0.00	29.801 
16:10	19.7	19.7	19.7	84	15.7	1	3	45	0.00	29.798 
16:15	19.7	19.7	19.7	85	15.9	1	4	45	0.00	29.802 
16:20	19.7	19.7	19.7	85	15.9	1	4	112	0.00	29.799 
16:25	19.7	19.7	19.7	85	15.9	1	3	112	0.00	29.790 
16:30	19.7	19.7	19.7	86	16.2	0	1	90	0.00	29.789 
16:35	19.7	19.7	19.7	86	16.2	0	2	90	0.00	29.789 
16:40	19.7	19.7	19.7	86	16.2	1	4	90	0.00	29.788 
16:45	19.5	19.5	19.5	86	16.0	1	3	45	0.00	29.789 
16:50	19.5	19.5	19.5	86	16.0	1	4	112	0.00	29.791 
16:55	19.4	19.4	19.4	85	15.6	1	5	90	0.00	29.791 
17:00	19.5	19.5	19.5	86	16.0	0	3	90	0.00	29.791 
17:05	19.5	19.5	19.5	86	16.0	0	2	22	0.00	29.790 
17:10	19.5	19.5	19.5	86	16.0	0	2	22	0.00	29.786 
17:15	19.5	19.5	19.5	86	16.0	0	1	22	0.00	29.786 
17:20	19.5	19.5	19.5	86	16.0	1	3	112	0.00	29.786 
17:25	19.5	19.5	19.5	87	16.3	0	2	112	0.00	29.789 
17:30	19.5	19.5	19.5	87	16.3	0	2	112	0.00	29.786 
17:35	19.5	19.5	19.5	87	16.3	0	2	112	0.00	29.781 
17:40	19.5	19.5	19.5	87	16.3	0	3	45	0.00	29.780 
17:45	19.4	19.4	19.4	87	16.2	0	2	45	0.00	29.778 
17:50	19.4	19.4	19.4	86	15.9	1	4	45	0.00	29.779 
17:55	19.2	19.2	19.2	86	15.7	0	1	90	0.00	29.779 
18:00	19.2	19.2	19.2	86	15.7	0	1	90	0.00	29.782 
18:05	19.2	19.2	19.2	87	16.0	0	1	90	0.00	29.786 
18:10	19.2	19.2	19.2	87	16.0	0	1	90	0.00	29.791 
18:15	19.2	19.2	19.2	87	16.0	0	1	90	0.00	29.792 
18:20	19.2	19.2	19.2	87	16.0	0	2	90	0.00	29.792 
18:25	19.1	19.1	19.1	86	15.6	0	1	338	0.00	29.792 
18:30	19.1	19.1	19.1	86	15.6	0	2	338	0.00	29.794 
18:35	19.1	19.1	19.1	86	15.6	0	1	338	0.00	29.797 
18:40	19.1	19.1	19.1	86	15.6	0	2	338	0.00	29.803 
18:45	19.1	19.1	19.1	87	15.9	0	3	270	0.00	29.807 
18:50	19.1	19.1	19.1	87	15.9	0	2	270	0.00	29.807 
18:55	19.1	19.1	19.1	87	15.9	0	1	270	0.00	29.805 
19:00	19.1	19.1	19.1	87	15.9	0	3	292	0.00	29.802 
19:05	18.9	18.9	18.9	86	15.4	0	2	292	0.00	29.807 
19:10	18.8	18.8	18.8	86	15.3	0	2	225	0.00	29.807 
19:15	18.6	18.6	18.6	85	14.9	0	2	225	0.00	29.807 
19:20	18.6	18.6	18.6	85	14.9	0	1	225	0.00	29.802 
19:25	18.6	18.6	18.6	85	14.9	0	1	225	0.00	29.801 
19:30	18.6	18.6	18.6	85	14.9	0	2	225	0.00	29.795 
19:35	18.4	18.4	18.4	85	14.7	0	2	338	0.00	29.804 
19:40	18.4	18.4	18.4	84	14.4	0	2	338	0.00	29.802 
19:45	18.4	18.4	18.4	84	14.4	0	1	338	0.00	29.810 
19:50	18.4	18.4	18.4	84	14.4	0	1	338	0.00	29.808 
19:55	18.4	18.4	18.4	84	14.4	0	2	338	0.00	29.817 
20:00	18.4	18.4	18.4	84	14.4	0	1	315	0.00	29.827 
20:05	18.6	18.6	18.6	84	14.6	0	1	315	0.00	29.828 
20:10	18.6	18.6	18.6	84	14.6	0	1	315	0.00	29.825 
20:15	18.6	18.6	18.6	84	14.6	0	2	315	0.00	29.822 
20:20	18.4	18.4	18.4	84	14.4	0	2	315	0.00	29.821 
20:25	18.4	18.4	18.4	84	14.4	1	3	270	0.00	29.817 
20:30	18.4	18.4	18.4	84	14.4	0	2	338	0.00	29.822 
20:35	18.3	18.3	18.3	84	14.3	0	1	338	0.00	29.823 
20:40	18.3	18.3	18.3	84	14.3	1	3	292	0.00	29.828 
20:45	18.3	18.3	18.3	84	14.3	1	2	292	0.00	29.838 
20:50	18.3	18.3	18.3	84	14.3	0	2	292	0.00	29.838 
20:55	18.3	18.3	18.3	84	14.3	1	3	270	0.00	29.839 
21:00	18.4	18.4	18.4	84	14.4	1	2	248	0.00	29.842 
21:05	18.4	18.4	18.4	84	14.4	0	1	248	0.00	29.841 
21:10	18.4	18.4	18.4	84	14.4	1	2	248	0.00	29.839 
21:15	18.4	18.4	18.4	84	14.4	0	2	315	0.00	29.835 
21:20	18.4	18.4	18.4	84	14.4	1	5	315	0.00	29.832 
21:25	18.3	18.3	18.3	83	14.0	1	3	292	0.00	29.836 
21:30	18.3	18.3	18.3	83	14.0	1	5	270	0.00	29.834 
21:35	18.3	18.3	18.3	83	14.0	1	4	315	0.00	29.830 
21:40	18.1	18.1	18.1	83	13.8	1	4	292	0.00	29.832 
21:45	18.1	18.1	18.1	83	13.8	1	3	292	0.00	29.836 
21:50	18.0	18.0	18.0	82	13.5	1	6	315	0.00	29.836 
21:55	17.7	17.7	17.7	82	13.2	2	7	315	0.00	29.833 
22:00	17.5	17.5	17.5	82	13.0	2	6	270	0.00	29.824 
22:05	17.5	17.5	17.5	82	13.0	1	4	270	0.00	29.827 
22:10	17.5	17.5	17.5	82	13.0	1	2	315	0.00	29.827 
22:15	17.5	17.5	17.5	82	13.0	1	4	315	0.00	29.824 
22:20	17.3	17.3	17.3	82	12.8	1	4	315	0.00	29.822 
22:25	17.2	17.2	17.2	81	12.4	1	5	315	0.00	29.823 
22:30	17.0	17.0	17.0	81	12.2	1	3	292	0.00	29.824 
22:35	17.0	17.0	17.0	81	12.2	1	2	315	0.00	29.824 
22:40	16.9	16.9	16.9	81	12.1	1	2	315	0.00	29.827 
22:45	16.7	16.7	16.7	81	11.9	1	3	338	0.00	29.832 
22:50	16.7	16.7	16.7	81	11.9	0	3	292	0.00	29.827 
22:55	16.5	16.5	16.5	81	11.7	1	3	292	0.00	29.827 
23:00	16.5	16.5	16.5	81	11.7	1	2	315	0.00	29.828 
23:05	16.4	16.4	16.4	81	11.6	0	3	292	0.00	29.830 
23:10	16.4	16.4	16.4	81	11.6	0	1	292	0.00	29.833 
23:15	16.2	16.2	16.2	81	11.4	0	2	315	0.00	29.833 
23:20	16.1	16.1	16.1	81	11.3	1	2	315	0.00	29.833 
23:25	16.1	16.1	16.1	81	11.3	0	2	315	0.00	29.837 
23:30	15.9	15.9	15.9	81	11.1	0	1	292	0.00	29.838 
23:35	15.7	15.7	15.7	81	10.9	1	3	292	0.00	29.836 
23:40	15.6	15.6	15.6	81	10.8	0	1	292	0.00	29.838 
23:45	15.4	15.4	15.4	81	10.6	0	2	270	0.00	29.830 
23:50	15.1	15.1	15.1	81	10.3	0	1	292	0.00	29.830 
23:55	14.9	14.9	14.9	81	10.1	0	1	292	0.00	29.827 

CoCoRaHS
IN-AL-39
A2 Web Hosting
Creative Commons License
GoDaddy
Look for:

loaded 2017-10-16 18:15:17 • last modified 2010-11-18 10:43:29
Privacy PolicyDisclaimer
• wx.awcolley.com is powered by PmWiki v.2002016 •
• all content (unless otherwise noted) © 2017 A W Colley